sensor_id;sensor_type;location;lat;lon;timestamp;P1;durP1;ratioP1;P2;durP2;ratioP2
73980;SDS011;62348;51.412;5.436;2023-06-14T00:00:17;9.40;;;5.95;;
73980;SDS011;62348;51.412;5.436;2023-06-14T00:02:42;7.93;;;6.03;;
73980;SDS011;62348;51.412;5.436;2023-06-14T00:05:08;7.18;;;6.10;;
73980;SDS011;62348;51.412;5.436;2023-06-14T00:07:34;9.30;;;5.60;;
73980;SDS011;62348;51.412;5.436;2023-06-14T00:10:01;9.75;;;6.18;;
73980;SDS011;62348;51.412;5.436;2023-06-14T00:12:28;13.30;;;6.07;;
73980;SDS011;62348;51.412;5.436;2023-06-14T00:14:53;8.30;;;5.63;;
73980;SDS011;62348;51.412;5.436;2023-06-14T00:17:19;8.32;;;6.55;;
73980;SDS011;62348;51.412;5.436;2023-06-14T00:19:45;9.32;;;5.78;;
73980;SDS011;62348;51.412;5.436;2023-06-14T00:22:11;7.72;;;6.28;;
73980;SDS011;62348;51.412;5.436;2023-06-14T00:24:37;7.70;;;6.50;;
73980;SDS011;62348;51.412;5.436;2023-06-14T00:27:02;9.02;;;6.20;;
73980;SDS011;62348;51.412;5.436;2023-06-14T00:29:28;7.88;;;6.07;;
73980;SDS011;62348;51.412;5.436;2023-06-14T00:31:53;7.80;;;5.43;;
73980;SDS011;62348;51.412;5.436;2023-06-14T00:34:19;7.35;;;6.43;;
73980;SDS011;62348;51.412;5.436;2023-06-14T00:36:44;7.65;;;6.22;;
73980;SDS011;62348;51.412;5.436;2023-06-14T00:39:09;8.10;;;6.20;;
73980;SDS011;62348;51.412;5.436;2023-06-14T00:41:35;8.57;;;6.13;;
73980;SDS011;62348;51.412;5.436;2023-06-14T00:44:00;8.02;;;6.10;;
73980;SDS011;62348;51.412;5.436;2023-06-14T00:46:26;7.53;;;5.72;;
73980;SDS011;62348;51.412;5.436;2023-06-14T00:48:51;7.78;;;5.90;;
73980;SDS011;62348;51.412;5.436;2023-06-14T00:51:17;7.78;;;5.57;;
73980;SDS011;62348;51.412;5.436;2023-06-14T00:53:43;6.00;;;5.15;;
73980;SDS011;62348;51.412;5.436;2023-06-14T00:56:12;8.50;;;6.30;;
73980;SDS011;62348;51.412;5.436;2023-06-14T00:58:38;9.38;;;5.93;;
73980;SDS011;62348;51.412;5.436;2023-06-14T01:01:04;7.38;;;6.10;;
73980;SDS011;62348;51.412;5.436;2023-06-14T01:03:29;10.10;;;5.55;;
73980;SDS011;62348;51.412;5.436;2023-06-14T01:05:59;6.63;;;5.13;;
73980;SDS011;62348;51.412;5.436;2023-06-14T01:08:50;7.18;;;5.47;;
73980;SDS011;62348;51.412;5.436;2023-06-14T01:11:28;6.30;;;5.47;;
73980;SDS011;62348;51.412;5.436;2023-06-14T01:14:03;6.90;;;5.50;;
73980;SDS011;62348;51.412;5.436;2023-06-14T01:16:29;5.80;;;5.05;;
73980;SDS011;62348;51.412;5.436;2023-06-14T01:18:56;7.05;;;5.38;;
73980;SDS011;62348;51.412;5.436;2023-06-14T01:21:23;8.55;;;5.45;;
73980;SDS011;62348;51.412;5.436;2023-06-14T01:23:50;7.50;;;5.93;;
73980;SDS011;62348;51.412;5.436;2023-06-14T01:26:21;8.10;;;5.63;;
73980;SDS011;62348;51.412;5.436;2023-06-14T01:28:47;7.32;;;5.15;;
73980;SDS011;62348;51.412;5.436;2023-06-14T01:31:16;7.13;;;5.60;;
73980;SDS011;62348;51.412;5.436;2023-06-14T01:33:44;8.18;;;5.85;;
73980;SDS011;62348;51.412;5.436;2023-06-14T01:36:11;8.07;;;5.85;;
73980;SDS011;62348;51.412;5.436;2023-06-14T01:38:37;7.78;;;5.82;;
73980;SDS011;62348;51.412;5.436;2023-06-14T01:41:03;8.05;;;5.68;;
73980;SDS011;62348;51.412;5.436;2023-06-14T01:43:29;8.18;;;5.25;;
73980;SDS011;62348;51.412;5.436;2023-06-14T01:45:56;8.02;;;5.93;;
73980;SDS011;62348;51.412;5.436;2023-06-14T01:48:22;9.98;;;4.88;;
73980;SDS011;62348;51.412;5.436;2023-06-14T01:50:49;9.68;;;5.43;;
73980;SDS011;62348;51.412;5.436;2023-06-14T01:53:15;10.05;;;5.82;;
73980;SDS011;62348;51.412;5.436;2023-06-14T01:55:40;6.30;;;5.55;;
73980;SDS011;62348;51.412;5.436;2023-06-14T01:58:08;7.50;;;5.03;;
73980;SDS011;62348;51.412;5.436;2023-06-14T02:00:34;5.75;;;5.13;;
73980;SDS011;62348;51.412;5.436;2023-06-14T02:02:59;11.50;;;5.40;;
73980;SDS011;62348;51.412;5.436;2023-06-14T02:05:25;6.07;;;4.80;;
73980;SDS011;62348;51.412;5.436;2023-06-14T02:07:51;11.15;;;5.35;;
73980;SDS011;62348;51.412;5.436;2023-06-14T02:10:16;9.18;;;5.90;;
73980;SDS011;62348;51.412;5.436;2023-06-14T02:12:42;8.13;;;5.05;;
73980;SDS011;62348;51.412;5.436;2023-06-14T02:15:09;13.77;;;5.35;;
73980;SDS011;62348;51.412;5.436;2023-06-14T02:17:42;7.20;;;5.45;;
73980;SDS011;62348;51.412;5.436;2023-06-14T02:20:08;7.75;;;5.88;;
73980;SDS011;62348;51.412;5.436;2023-06-14T02:22:34;9.98;;;4.53;;
73980;SDS011;62348;51.412;5.436;2023-06-14T02:25:00;6.78;;;5.20;;
73980;SDS011;62348;51.412;5.436;2023-06-14T02:27:25;7.32;;;5.30;;
73980;SDS011;62348;51.412;5.436;2023-06-14T02:29:51;8.07;;;5.45;;
73980;SDS011;62348;51.412;5.436;2023-06-14T02:32:16;7.80;;;5.28;;
73980;SDS011;62348;51.412;5.436;2023-06-14T02:34:41;8.25;;;4.95;;
73980;SDS011;62348;51.412;5.436;2023-06-14T02:37:07;6.85;;;4.60;;
73980;SDS011;62348;51.412;5.436;2023-06-14T02:39:33;7.95;;;5.15;;
73980;SDS011;62348;51.412;5.436;2023-06-14T02:41:58;7.30;;;5.13;;
73980;SDS011;62348;51.412;5.436;2023-06-14T02:44:24;9.60;;;5.50;;
73980;SDS011;62348;51.412;5.436;2023-06-14T02:46:52;5.07;;;4.47;;
73980;SDS011;62348;51.412;5.436;2023-06-14T02:49:19;7.22;;;5.60;;
73980;SDS011;62348;51.412;5.436;2023-06-14T02:51:44;6.82;;;4.90;;
73980;SDS011;62348;51.412;5.436;2023-06-14T02:54:10;6.40;;;5.03;;
73980;SDS011;62348;51.412;5.436;2023-06-14T02:56:36;8.10;;;4.97;;
73980;SDS011;62348;51.412;5.436;2023-06-14T02:59:01;8.88;;;4.85;;
73980;SDS011;62348;51.412;5.436;2023-06-14T03:01:27;10.13;;;5.22;;
73980;SDS011;62348;51.412;5.436;2023-06-14T03:03:58;9.03;;;5.57;;
73980;SDS011;62348;51.412;5.436;2023-06-14T03:06:24;9.73;;;5.25;;
73980;SDS011;62348;51.412;5.436;2023-06-14T03:08:50;9.70;;;5.03;;
73980;SDS011;62348;51.412;5.436;2023-06-14T03:11:16;7.43;;;5.05;;
73980;SDS011;62348;51.412;5.436;2023-06-14T03:13:45;7.00;;;5.25;;
73980;SDS011;62348;51.412;5.436;2023-06-14T03:16:11;7.28;;;4.70;;
73980;SDS011;62348;51.412;5.436;2023-06-14T03:18:37;7.35;;;5.30;;
73980;SDS011;62348;51.412;5.436;2023-06-14T03:21:02;5.93;;;4.97;;
73980;SDS011;62348;51.412;5.436;2023-06-14T03:23:28;9.90;;;5.28;;
73980;SDS011;62348;51.412;5.436;2023-06-14T03:25:53;6.20;;;4.85;;
73980;SDS011;62348;51.412;5.436;2023-06-14T03:28:19;5.70;;;4.68;;
73980;SDS011;62348;51.412;5.436;2023-06-14T03:30:44;7.90;;;5.47;;
73980;SDS011;62348;51.412;5.436;2023-06-14T03:33:10;11.23;;;4.97;;
73980;SDS011;62348;51.412;5.436;2023-06-14T03:35:35;7.03;;;5.18;;
73980;SDS011;62348;51.412;5.436;2023-06-14T03:38:01;6.78;;;4.38;;
73980;SDS011;62348;51.412;5.436;2023-06-14T03:40:28;6.63;;;5.18;;
73980;SDS011;62348;51.412;5.436;2023-06-14T03:42:54;6.20;;;4.65;;
73980;SDS011;62348;51.412;5.436;2023-06-14T03:45:20;7.22;;;5.25;;
73980;SDS011;62348;51.412;5.436;2023-06-14T03:47:45;9.88;;;4.75;;
73980;SDS011;62348;51.412;5.436;2023-06-14T03:50:11;5.55;;;4.35;;
73980;SDS011;62348;51.412;5.436;2023-06-14T03:52:37;5.35;;;4.50;;
73980;SDS011;62348;51.412;5.436;2023-06-14T03:55:02;6.20;;;4.47;;
73980;SDS011;62348;51.412;5.436;2023-06-14T03:57:29;9.07;;;4.90;;
73980;SDS011;62348;51.412;5.436;2023-06-14T03:59:54;6.60;;;4.57;;
73980;SDS011;62348;51.412;5.436;2023-06-14T04:02:20;10.23;;;6.15;;
73980;SDS011;62348;51.412;5.436;2023-06-14T04:04:45;6.28;;;4.78;;
73980;SDS011;62348;51.412;5.436;2023-06-14T04:07:11;5.40;;;4.50;;
73980;SDS011;62348;51.412;5.436;2023-06-14T04:09:38;8.00;;;4.70;;
73980;SDS011;62348;51.412;5.436;2023-06-14T04:12:04;7.13;;;4.82;;
73980;SDS011;62348;51.412;5.436;2023-06-14T04:14:30;7.28;;;5.28;;
73980;SDS011;62348;51.412;5.436;2023-06-14T04:16:57;7.00;;;5.03;;
73980;SDS011;62348;51.412;5.436;2023-06-14T04:19:23;5.35;;;4.20;;
73980;SDS011;62348;51.412;5.436;2023-06-14T04:21:49;7.07;;;4.97;;
73980;SDS011;62348;51.412;5.436;2023-06-14T04:24:14;6.65;;;4.88;;
73980;SDS011;62348;51.412;5.436;2023-06-14T04:26:41;6.93;;;4.97;;
73980;SDS011;62348;51.412;5.436;2023-06-14T04:29:10;6.00;;;4.40;;
73980;SDS011;62348;51.412;5.436;2023-06-14T04:31:39;10.05;;;4.95;;
73980;SDS011;62348;51.412;5.436;2023-06-14T04:34:05;6.15;;;4.82;;
73980;SDS011;62348;51.412;5.436;2023-06-14T04:36:32;5.75;;;4.53;;
73980;SDS011;62348;51.412;5.436;2023-06-14T04:39:03;6.38;;;4.25;;
73980;SDS011;62348;51.412;5.436;2023-06-14T04:41:29;6.72;;;4.57;;
73980;SDS011;62348;51.412;5.436;2023-06-14T04:43:57;4.60;;;4.13;;
73980;SDS011;62348;51.412;5.436;2023-06-14T04:46:26;5.82;;;5.10;;
73980;SDS011;62348;51.412;5.436;2023-06-14T04:48:57;5.90;;;4.70;;
73980;SDS011;62348;51.412;5.436;2023-06-14T04:51:23;8.63;;;4.85;;
73980;SDS011;62348;51.412;5.436;2023-06-14T04:53:54;8.27;;;4.90;;
73980;SDS011;62348;51.412;5.436;2023-06-14T04:56:23;7.20;;;4.65;;
73980;SDS011;62348;51.412;5.436;2023-06-14T04:58:50;7.00;;;4.88;;
73980;SDS011;62348;51.412;5.436;2023-06-14T05:01:15;6.28;;;4.90;;
73980;SDS011;62348;51.412;5.436;2023-06-14T05:03:41;6.90;;;4.65;;
73980;SDS011;62348;51.412;5.436;2023-06-14T05:06:06;7.63;;;4.60;;
73980;SDS011;62348;51.412;5.436;2023-06-14T05:08:32;4.95;;;4.22;;
73980;SDS011;62348;51.412;5.436;2023-06-14T05:10:57;8.02;;;5.35;;
73980;SDS011;62348;51.412;5.436;2023-06-14T05:13:23;9.25;;;5.18;;
73980;SDS011;62348;51.412;5.436;2023-06-14T05:15:48;9.30;;;4.70;;
73980;SDS011;62348;51.412;5.436;2023-06-14T05:18:14;6.80;;;4.85;;
73980;SDS011;62348;51.412;5.436;2023-06-14T05:20:40;7.90;;;4.85;;
73980;SDS011;62348;51.412;5.436;2023-06-14T05:23:09;10.07;;;5.68;;
73980;SDS011;62348;51.412;5.436;2023-06-14T05:25:40;7.40;;;5.20;;
73980;SDS011;62348;51.412;5.436;2023-06-14T05:28:08;11.10;;;5.22;;
73980;SDS011;62348;51.412;5.436;2023-06-14T05:30:34;9.07;;;5.35;;
73980;SDS011;62348;51.412;5.436;2023-06-14T05:33:00;14.45;;;5.15;;
73980;SDS011;62348;51.412;5.436;2023-06-14T05:35:25;8.68;;;5.20;;
73980;SDS011;62348;51.412;5.436;2023-06-14T05:37:51;8.90;;;5.90;;
73980;SDS011;62348;51.412;5.436;2023-06-14T05:40:17;8.73;;;4.63;;
73980;SDS011;62348;51.412;5.436;2023-06-14T05:42:43;11.20;;;5.75;;
73980;SDS011;62348;51.412;5.436;2023-06-14T05:45:09;8.95;;;5.20;;
73980;SDS011;62348;51.412;5.436;2023-06-14T05:47:34;8.27;;;5.25;;
73980;SDS011;62348;51.412;5.436;2023-06-14T05:50:00;10.88;;;5.47;;
73980;SDS011;62348;51.412;5.436;2023-06-14T05:52:26;7.10;;;4.60;;
73980;SDS011;62348;51.412;5.436;2023-06-14T05:54:51;6.43;;;5.00;;
73980;SDS011;62348;51.412;5.436;2023-06-14T05:57:17;8.23;;;4.78;;
73980;SDS011;62348;51.412;5.436;2023-06-14T05:59:42;13.00;;;5.25;;
73980;SDS011;62348;51.412;5.436;2023-06-14T06:02:07;7.93;;;5.18;;
73980;SDS011;62348;51.412;5.436;2023-06-14T06:04:33;9.90;;;5.82;;
73980;SDS011;62348;51.412;5.436;2023-06-14T06:06:58;7.97;;;5.15;;
73980;SDS011;62348;51.412;5.436;2023-06-14T06:09:24;9.45;;;5.13;;
73980;SDS011;62348;51.412;5.436;2023-06-14T06:11:49;6.28;;;4.88;;
73980;SDS011;62348;51.412;5.436;2023-06-14T06:14:14;6.60;;;5.28;;
73980;SDS011;62348;51.412;5.436;2023-06-14T06:16:40;9.18;;;4.32;;
73980;SDS011;62348;51.412;5.436;2023-06-14T06:19:05;9.18;;;5.32;;
73980;SDS011;62348;51.412;5.436;2023-06-14T06:21:31;9.10;;;5.32;;
73980;SDS011;62348;51.412;5.436;2023-06-14T06:23:56;6.40;;;4.93;;
73980;SDS011;62348;51.412;5.436;2023-06-14T06:26:22;11.52;;;5.35;;
73980;SDS011;62348;51.412;5.436;2023-06-14T06:28:48;13.27;;;5.63;;
73980;SDS011;62348;51.412;5.436;2023-06-14T06:31:13;10.10;;;4.75;;
73980;SDS011;62348;51.412;5.436;2023-06-14T06:33:39;9.70;;;5.20;;
73980;SDS011;62348;51.412;5.436;2023-06-14T06:36:05;11.93;;;5.45;;
73980;SDS011;62348;51.412;5.436;2023-06-14T06:38:30;10.20;;;5.15;;
73980;SDS011;62348;51.412;5.436;2023-06-14T06:40:56;10.27;;;4.97;;
73980;SDS011;62348;51.412;5.436;2023-06-14T06:43:21;10.75;;;5.40;;
73980;SDS011;62348;51.412;5.436;2023-06-14T06:45:47;11.30;;;5.80;;
73980;SDS011;62348;51.412;5.436;2023-06-14T06:48:12;9.45;;;4.80;;
73980;SDS011;62348;51.412;5.436;2023-06-14T06:50:38;8.68;;;4.95;;
73980;SDS011;62348;51.412;5.436;2023-06-14T06:53:04;8.73;;;5.72;;
73980;SDS011;62348;51.412;5.436;2023-06-14T06:55:30;9.38;;;5.53;;
73980;SDS011;62348;51.412;5.436;2023-06-14T06:57:55;9.80;;;5.45;;
73980;SDS011;62348;51.412;5.436;2023-06-14T07:00:21;12.05;;;5.28;;
73980;SDS011;62348;51.412;5.436;2023-06-14T07:02:47;12.55;;;5.40;;
73980;SDS011;62348;51.412;5.436;2023-06-14T07:05:12;12.35;;;5.35;;
73980;SDS011;62348;51.412;5.436;2023-06-14T07:07:38;7.82;;;5.25;;
73980;SDS011;62348;51.412;5.436;2023-06-14T07:10:04;6.72;;;4.00;;
73980;SDS011;62348;51.412;5.436;2023-06-14T07:12:30;8.95;;;4.53;;
73980;SDS011;62348;51.412;5.436;2023-06-14T07:14:58;8.30;;;4.22;;
73980;SDS011;62348;51.412;5.436;2023-06-14T07:17:24;6.90;;;4.07;;
73980;SDS011;62348;51.412;5.436;2023-06-14T07:19:50;11.45;;;4.00;;
73980;SDS011;62348;51.412;5.436;2023-06-14T07:22:16;7.90;;;4.28;;
73980;SDS011;62348;51.412;5.436;2023-06-14T07:24:42;7.38;;;4.03;;
73980;SDS011;62348;51.412;5.436;2023-06-14T07:27:08;7.10;;;3.50;;
73980;SDS011;62348;51.412;5.436;2023-06-14T07:29:34;8.95;;;4.13;;
73980;SDS011;62348;51.412;5.436;2023-06-14T07:31:59;8.52;;;3.75;;
73980;SDS011;62348;51.412;5.436;2023-06-14T07:34:25;7.03;;;3.58;;
73980;SDS011;62348;51.412;5.436;2023-06-14T07:36:51;9.15;;;4.68;;
73980;SDS011;62348;51.412;5.436;2023-06-14T07:39:16;8.77;;;3.88;;
73980;SDS011;62348;51.412;5.436;2023-06-14T07:41:41;6.88;;;4.38;;
73980;SDS011;62348;51.412;5.436;2023-06-14T07:44:07;3.92;;;3.20;;
73980;SDS011;62348;51.412;5.436;2023-06-14T07:46:32;6.97;;;3.58;;
73980;SDS011;62348;51.412;5.436;2023-06-14T07:48:59;5.85;;;3.33;;
73980;SDS011;62348;51.412;5.436;2023-06-14T07:51:25;5.63;;;3.50;;
73980;SDS011;62348;51.412;5.436;2023-06-14T07:53:50;10.10;;;3.50;;
73980;SDS011;62348;51.412;5.436;2023-06-14T07:56:15;10.18;;;4.05;;
73980;SDS011;62348;51.412;5.436;2023-06-14T07:58:41;10.25;;;3.70;;
73980;SDS011;62348;51.412;5.436;2023-06-14T08:01:06;5.57;;;3.58;;
73980;SDS011;62348;51.412;5.436;2023-06-14T08:03:33;8.10;;;4.03;;
73980;SDS011;62348;51.412;5.436;2023-06-14T08:05:59;8.05;;;3.75;;
73980;SDS011;62348;51.412;5.436;2023-06-14T08:08:26;8.40;;;4.03;;
73980;SDS011;62348;51.412;5.436;2023-06-14T08:10:51;15.38;;;3.72;;
73980;SDS011;62348;51.412;5.436;2023-06-14T08:13:17;7.13;;;3.63;;
73980;SDS011;62348;51.412;5.436;2023-06-14T08:15:42;7.88;;;3.72;;
73980;SDS011;62348;51.412;5.436;2023-06-14T08:18:08;6.90;;;3.47;;
73980;SDS011;62348;51.412;5.436;2023-06-14T08:20:33;6.32;;;3.75;;
73980;SDS011;62348;51.412;5.436;2023-06-14T08:23:00;11.32;;;3.45;;
73980;SDS011;62348;51.412;5.436;2023-06-14T08:25:26;12.60;;;3.70;;
73980;SDS011;62348;51.412;5.436;2023-06-14T08:27:52;6.30;;;3.13;;
73980;SDS011;62348;51.412;5.436;2023-06-14T08:30:17;4.20;;;2.42;;
73980;SDS011;62348;51.412;5.436;2023-06-14T08:32:43;5.43;;;3.05;;
73980;SDS011;62348;51.412;5.436;2023-06-14T08:35:09;5.35;;;3.30;;
73980;SDS011;62348;51.412;5.436;2023-06-14T08:37:38;10.85;;;3.30;;
73980;SDS011;62348;51.412;5.436;2023-06-14T08:40:06;7.88;;;3.38;;
73980;SDS011;62348;51.412;5.436;2023-06-14T08:42:46;8.02;;;3.70;;
73980;SDS011;62348;51.412;5.436;2023-06-14T08:45:15;6.78;;;3.28;;
73980;SDS011;62348;51.412;5.436;2023-06-14T08:47:40;7.93;;;2.92;;
73980;SDS011;62348;51.412;5.436;2023-06-14T08:50:06;3.90;;;3.00;;
73980;SDS011;62348;51.412;5.436;2023-06-14T08:52:33;4.60;;;2.95;;
73980;SDS011;62348;51.412;5.436;2023-06-14T08:55:06;5.77;;;2.97;;
73980;SDS011;62348;51.412;5.436;2023-06-14T08:57:33;5.72;;;2.88;;
73980;SDS011;62348;51.412;5.436;2023-06-14T09:00:02;8.45;;;3.17;;
73980;SDS011;62348;51.412;5.436;2023-06-14T09:02:37;7.28;;;3.10;;
73980;SDS011;62348;51.412;5.436;2023-06-14T09:05:02;6.88;;;2.97;;
73980;SDS011;62348;51.412;5.436;2023-06-14T09:07:28;5.35;;;2.67;;
73980;SDS011;62348;51.412;5.436;2023-06-14T09:10:07;4.95;;;3.00;;
73980;SDS011;62348;51.412;5.436;2023-06-14T09:12:41;8.20;;;2.72;;
73980;SDS011;62348;51.412;5.436;2023-06-14T09:15:07;4.53;;;2.20;;
73980;SDS011;62348;51.412;5.436;2023-06-14T09:17:40;6.97;;;2.20;;
73980;SDS011;62348;51.412;5.436;2023-06-14T09:20:07;8.05;;;2.40;;
73980;SDS011;62348;51.412;5.436;2023-06-14T09:22:43;6.68;;;2.28;;
73980;SDS011;62348;51.412;5.436;2023-06-14T09:25:08;5.30;;;1.98;;
73980;SDS011;62348;51.412;5.436;2023-06-14T09:27:34;3.83;;;2.33;;
73980;SDS011;62348;51.412;5.436;2023-06-14T09:30:01;6.22;;;2.60;;
73980;SDS011;62348;51.412;5.436;2023-06-14T09:32:27;2.35;;;1.98;;
73980;SDS011;62348;51.412;5.436;2023-06-14T09:34:53;3.90;;;2.10;;
73980;SDS011;62348;51.412;5.436;2023-06-14T09:37:29;5.00;;;2.00;;
73980;SDS011;62348;51.412;5.436;2023-06-14T09:39:56;2.53;;;1.80;;
73980;SDS011;62348;51.412;5.436;2023-06-14T09:42:22;4.82;;;1.58;;
73980;SDS011;62348;51.412;5.436;2023-06-14T09:44:50;5.40;;;2.15;;
73980;SDS011;62348;51.412;5.436;2023-06-14T09:47:17;4.93;;;1.70;;
73980;SDS011;62348;51.412;5.436;2023-06-14T09:49:43;4.93;;;1.45;;
73980;SDS011;62348;51.412;5.436;2023-06-14T09:52:14;4.28;;;1.30;;
73980;SDS011;62348;51.412;5.436;2023-06-14T09:54:42;2.30;;;1.35;;
73980;SDS011;62348;51.412;5.436;2023-06-14T09:57:10;4.47;;;1.63;;
73980;SDS011;62348;51.412;5.436;2023-06-14T09:59:36;2.63;;;1.30;;
73980;SDS011;62348;51.412;5.436;2023-06-14T10:02:09;4.43;;;1.15;;
73980;SDS011;62348;51.412;5.436;2023-06-14T10:04:55;3.33;;;1.17;;
73980;SDS011;62348;51.412;5.436;2023-06-14T10:07:26;3.38;;;1.33;;
73980;SDS011;62348;51.412;5.436;2023-06-14T10:09:55;4.63;;;1.30;;
73980;SDS011;62348;51.412;5.436;2023-06-14T10:12:20;4.40;;;1.30;;
73980;SDS011;62348;51.412;5.436;2023-06-14T10:14:49;2.95;;;1.33;;
73980;SDS011;62348;51.412;5.436;2023-06-14T10:17:20;2.45;;;1.20;;
73980;SDS011;62348;51.412;5.436;2023-06-14T10:20:11;1.63;;;1.38;;
73980;SDS011;62348;51.412;5.436;2023-06-14T10:22:56;1.60;;;1.20;;
73980;SDS011;62348;51.412;5.436;2023-06-14T10:25:30;3.35;;;1.85;;
73980;SDS011;62348;51.412;5.436;2023-06-14T10:33:30;3.15;;;1.08;;
73980;SDS011;62348;51.412;5.436;2023-06-14T10:36:09;4.90;;;1.33;;
73980;SDS011;62348;51.412;5.436;2023-06-14T10:38:47;2.53;;;1.20;;
73980;SDS011;62348;51.412;5.436;2023-06-14T10:41:39;4.43;;;1.48;;
73980;SDS011;62348;51.412;5.436;2023-06-14T10:46:39;5.00;;;1.70;;
73980;SDS011;62348;51.412;5.436;2023-06-14T10:49:05;3.65;;;1.65;;
73980;SDS011;62348;51.412;5.436;2023-06-14T10:51:38;5.03;;;1.52;;
73980;SDS011;62348;51.412;5.436;2023-06-14T10:54:13;2.70;;;1.57;;
73980;SDS011;62348;51.412;5.436;2023-06-14T10:56:49;6.57;;;1.60;;
73980;SDS011;62348;51.412;5.436;2023-06-14T10:59:16;1.92;;;1.50;;
73980;SDS011;62348;51.412;5.436;2023-06-14T11:04:26;4.28;;;1.80;;
73980;SDS011;62348;51.412;5.436;2023-06-14T11:07:21;3.53;;;1.70;;
73980;SDS011;62348;51.412;5.436;2023-06-14T11:10:19;2.53;;;1.55;;
73980;SDS011;62348;51.412;5.436;2023-06-14T11:13:01;2.03;;;1.83;;
73980;SDS011;62348;51.412;5.436;2023-06-14T11:15:30;6.72;;;2.00;;
73980;SDS011;62348;51.412;5.436;2023-06-14T11:17:56;3.97;;;1.77;;
73980;SDS011;62348;51.412;5.436;2023-06-14T11:20:26;2.40;;;1.42;;
73980;SDS011;62348;51.412;5.436;2023-06-14T11:22:53;3.92;;;1.73;;
73980;SDS011;62348;51.412;5.436;2023-06-14T11:25:20;3.28;;;1.35;;
73980;SDS011;62348;51.412;5.436;2023-06-14T11:27:45;2.10;;;1.75;;
73980;SDS011;62348;51.412;5.436;2023-06-14T11:30:11;4.38;;;1.98;;
73980;SDS011;62348;51.412;5.436;2023-06-14T11:32:38;2.75;;;1.60;;
73980;SDS011;62348;51.412;5.436;2023-06-14T11:35:04;2.97;;;1.60;;
73980;SDS011;62348;51.412;5.436;2023-06-14T11:37:30;4.13;;;1.77;;
73980;SDS011;62348;51.412;5.436;2023-06-14T11:40:00;3.70;;;1.88;;
73980;SDS011;62348;51.412;5.436;2023-06-14T11:42:26;4.63;;;1.85;;
73980;SDS011;62348;51.412;5.436;2023-06-14T11:44:53;4.80;;;1.83;;
73980;SDS011;62348;51.412;5.436;2023-06-14T11:47:20;6.85;;;2.47;;
73980;SDS011;62348;51.412;5.436;2023-06-14T11:49:46;3.17;;;1.63;;
73980;SDS011;62348;51.412;5.436;2023-06-14T11:52:12;5.88;;;1.58;;
73980;SDS011;62348;51.412;5.436;2023-06-14T11:54:38;2.53;;;1.73;;
73980;SDS011;62348;51.412;5.436;2023-06-14T11:57:05;2.55;;;1.58;;
73980;SDS011;62348;51.412;5.436;2023-06-14T11:59:38;4.07;;;1.58;;
73980;SDS011;62348;51.412;5.436;2023-06-14T12:02:04;2.28;;;1.83;;
73980;SDS011;62348;51.412;5.436;2023-06-14T12:04:31;3.55;;;1.90;;
73980;SDS011;62348;51.412;5.436;2023-06-14T12:06:57;3.90;;;1.65;;
73980;SDS011;62348;51.412;5.436;2023-06-14T12:09:23;2.53;;;1.70;;
73980;SDS011;62348;51.412;5.436;2023-06-14T12:11:50;5.50;;;1.60;;
73980;SDS011;62348;51.412;5.436;2023-06-14T12:14:28;2.03;;;1.50;;
73980;SDS011;62348;51.412;5.436;2023-06-14T12:17:03;3.17;;;1.73;;
73980;SDS011;62348;51.412;5.436;2023-06-14T12:19:31;2.78;;;1.52;;
73980;SDS011;62348;51.412;5.436;2023-06-14T12:21:58;2.90;;;1.65;;
73980;SDS011;62348;51.412;5.436;2023-06-14T12:24:29;2.53;;;1.45;;
73980;SDS011;62348;51.412;5.436;2023-06-14T12:26:56;3.55;;;1.48;;
73980;SDS011;62348;51.412;5.436;2023-06-14T12:29:24;4.80;;;1.75;;
73980;SDS011;62348;51.412;5.436;2023-06-14T12:31:50;4.45;;;1.40;;
73980;SDS011;62348;51.412;5.436;2023-06-14T12:34:18;2.67;;;1.50;;
73980;SDS011;62348;51.412;5.436;2023-06-14T12:36:44;1.77;;;1.67;;
73980;SDS011;62348;51.412;5.436;2023-06-14T12:39:11;4.43;;;1.45;;
73980;SDS011;62348;51.412;5.436;2023-06-14T12:41:37;1.98;;;1.65;;
73980;SDS011;62348;51.412;5.436;2023-06-14T12:44:02;3.03;;;1.60;;
73980;SDS011;62348;51.412;5.436;2023-06-14T12:46:30;4.30;;;1.58;;
73980;SDS011;62348;51.412;5.436;2023-06-14T12:48:57;2.10;;;1.73;;
73980;SDS011;62348;51.412;5.436;2023-06-14T12:51:22;2.38;;;1.45;;
73980;SDS011;62348;51.412;5.436;2023-06-14T12:53:48;3.40;;;1.38;;
73980;SDS011;62348;51.412;5.436;2023-06-14T12:56:14;4.18;;;1.58;;
73980;SDS011;62348;51.412;5.436;2023-06-14T12:58:41;1.60;;;1.45;;
73980;SDS011;62348;51.412;5.436;2023-06-14T13:01:06;6.07;;;1.73;;
73980;SDS011;62348;51.412;5.436;2023-06-14T13:03:32;1.80;;;1.45;;
73980;SDS011;62348;51.412;5.436;2023-06-14T13:05:59;4.25;;;1.80;;
73980;SDS011;62348;51.412;5.436;2023-06-14T13:08:25;3.28;;;1.50;;
73980;SDS011;62348;51.412;5.436;2023-06-14T13:10:50;3.80;;;1.58;;
73980;SDS011;62348;51.412;5.436;2023-06-14T13:13:16;2.10;;;1.38;;
73980;SDS011;62348;51.412;5.436;2023-06-14T13:15:41;2.30;;;1.63;;
73980;SDS011;62348;51.412;5.436;2023-06-14T13:18:07;5.15;;;1.75;;
73980;SDS011;62348;51.412;5.436;2023-06-14T13:20:32;7.43;;;2.00;;
73980;SDS011;62348;51.412;5.436;2023-06-14T13:22:59;2.47;;;1.35;;
73980;SDS011;62348;51.412;5.436;2023-06-14T13:25:24;3.67;;;1.50;;
73980;SDS011;62348;51.412;5.436;2023-06-14T13:27:50;3.90;;;1.30;;
73980;SDS011;62348;51.412;5.436;2023-06-14T13:30:15;1.58;;;1.25;;
73980;SDS011;62348;51.412;5.436;2023-06-14T13:32:41;1.58;;;1.40;;
73980;SDS011;62348;51.412;5.436;2023-06-14T13:35:06;4.22;;;1.50;;
73980;SDS011;62348;51.412;5.436;2023-06-14T13:37:32;2.85;;;1.50;;
73980;SDS011;62348;51.412;5.436;2023-06-14T13:39:57;4.90;;;2.20;;
73980;SDS011;62348;51.412;5.436;2023-06-14T13:42:23;1.70;;;1.23;;
73980;SDS011;62348;51.412;5.436;2023-06-14T13:44:48;3.13;;;1.45;;
73980;SDS011;62348;51.412;5.436;2023-06-14T13:47:13;3.55;;;2.00;;
73980;SDS011;62348;51.412;5.436;2023-06-14T13:49:39;2.40;;;1.38;;
73980;SDS011;62348;51.412;5.436;2023-06-14T13:52:04;2.80;;;1.60;;
73980;SDS011;62348;51.412;5.436;2023-06-14T13:54:30;1.77;;;1.17;;
73980;SDS011;62348;51.412;5.436;2023-06-14T13:56:55;2.35;;;1.40;;
73980;SDS011;62348;51.412;5.436;2023-06-14T13:59:21;9.75;;;1.40;;
73980;SDS011;62348;51.412;5.436;2023-06-14T14:01:47;3.80;;;1.48;;
73980;SDS011;62348;51.412;5.436;2023-06-14T14:04:13;3.03;;;2.05;;
73980;SDS011;62348;51.412;5.436;2023-06-14T14:06:38;1.73;;;1.30;;
73980;SDS011;62348;51.412;5.436;2023-06-14T14:09:04;2.38;;;1.10;;
73980;SDS011;62348;51.412;5.436;2023-06-14T14:11:29;1.63;;;1.02;;
73980;SDS011;62348;51.412;5.436;2023-06-14T14:13:57;5.07;;;1.45;;
73980;SDS011;62348;51.412;5.436;2023-06-14T14:16:23;3.45;;;1.10;;
73980;SDS011;62348;51.412;5.436;2023-06-14T14:18:48;6.68;;;1.38;;
73980;SDS011;62348;51.412;5.436;2023-06-14T14:21:14;4.03;;;1.38;;
73980;SDS011;62348;51.412;5.436;2023-06-14T14:23:39;1.73;;;1.17;;
73980;SDS011;62348;51.412;5.436;2023-06-14T14:26:05;2.60;;;1.00;;
73980;SDS011;62348;51.412;5.436;2023-06-14T14:28:30;2.13;;;1.17;;
73980;SDS011;62348;51.412;5.436;2023-06-14T14:30:57;2.03;;;0.88;;
73980;SDS011;62348;51.412;5.436;2023-06-14T14:33:23;1.38;;;0.90;;
73980;SDS011;62348;51.412;5.436;2023-06-14T14:35:48;1.75;;;1.27;;
73980;SDS011;62348;51.412;5.436;2023-06-14T14:38:14;4.85;;;0.93;;
73980;SDS011;62348;51.412;5.436;2023-06-14T14:40:43;1.75;;;1.08;;
73980;SDS011;62348;51.412;5.436;2023-06-14T14:43:09;5.28;;;0.95;;
73980;SDS011;62348;51.412;5.436;2023-06-14T14:45:36;2.88;;;1.27;;
73980;SDS011;62348;51.412;5.436;2023-06-14T14:48:02;2.78;;;1.20;;
73980;SDS011;62348;51.412;5.436;2023-06-14T14:50:27;1.35;;;1.10;;
73980;SDS011;62348;51.412;5.436;2023-06-14T14:52:53;4.40;;;1.10;;
73980;SDS011;62348;51.412;5.436;2023-06-14T14:55:19;1.13;;;1.00;;